createdAt,value
2023-03-27T01:15:31.682Z,1007.70
2023-03-27T01:16:31.564Z,1007.41
2023-03-27T01:17:31.538Z,1007.43
2023-03-27T01:18:31.520Z,1007.44
2023-03-27T01:19:31.498Z,1007.41
2023-03-27T01:20:31.409Z,1007.48
2023-03-27T01:21:31.337Z,1007.48
2023-03-27T01:22:31.313Z,1007.44
2023-03-27T01:23:36.219Z,1007.83
2023-03-27T01:24:31.203Z,1007.51
2023-03-27T01:25:31.137Z,1007.52
2023-03-27T01:26:35.444Z,1007.53
2023-03-27T01:27:31.034Z,1007.57
2023-03-27T01:28:31.013Z,1007.87
2023-03-27T01:29:30.950Z,1007.90
2023-03-27T01:30:30.917Z,1007.89
2023-03-27T01:31:30.911Z,1007.93
2023-03-27T01:32:30.907Z,1007.94
2023-03-27T01:33:30.780Z,1007.64
2023-03-27T01:34:30.743Z,1007.69
2023-03-27T01:35:30.715Z,1008.03
2023-03-27T01:36:30.633Z,1007.98
2023-03-27T01:37:30.597Z,1008.12
2023-03-27T01:38:30.590Z,1007.77
2023-03-27T01:39:30.509Z,1008.12
2023-03-27T01:40:30.452Z,1008.13
2023-03-27T01:41:30.411Z,1008.10
2023-03-27T01:42:30.363Z,1008.09
2023-03-27T01:43:30.346Z,1008.11
2023-03-27T01:44:42.714Z,1007.99
2023-03-27T01:45:30.257Z,1008.11
2023-03-27T01:46:30.182Z,1008.02
2023-03-27T01:47:30.142Z,1008.17
2023-03-27T01:48:30.078Z,1007.82
2023-03-27T01:49:30.064Z,1007.84
2023-03-27T01:50:30.002Z,1007.82
2023-03-27T01:51:29.964Z,1008.16
2023-03-27T01:52:29.934Z,1007.83
2023-03-27T01:53:29.883Z,1007.84
2023-03-27T01:54:29.847Z,1007.85
2023-03-27T01:55:29.784Z,1007.88
2023-03-27T01:56:29.741Z,1007.88
2023-03-27T01:57:29.712Z,1007.90
2023-03-27T01:58:29.642Z,1008.04
2023-03-27T01:59:29.640Z,1008.02
2023-03-27T02:00:51.312Z,1007.96
2023-03-27T02:01:29.544Z,1007.98
2023-03-27T02:02:29.505Z,1008.33
2023-03-27T02:03:29.423Z,1008.12
2023-03-27T02:04:29.394Z,1008.41
2023-03-27T02:05:29.344Z,1008.44
2023-03-27T02:06:29.306Z,1008.07
2023-03-27T02:07:29.260Z,1008.05
2023-03-27T02:08:29.214Z,1008.05
2023-03-27T02:09:29.137Z,1008.14
2023-03-27T02:10:29.105Z,1008.12
2023-03-27T02:11:29.061Z,1008.10
2023-03-27T02:12:29.057Z,1008.09
2023-03-27T02:13:28.968Z,1008.40
2023-03-27T02:14:28.940Z,1008.15
2023-03-27T02:15:28.880Z,1008.15
2023-03-27T02:16:28.896Z,1008.22
2023-03-27T02:17:28.829Z,1008.59
2023-03-27T02:18:28.751Z,1008.22
2023-03-27T02:19:28.699Z,1008.41
2023-03-27T02:20:28.637Z,1008.64
2023-03-27T02:21:28.623Z,1008.66
2023-03-27T02:22:37.341Z,1008.31
2023-03-27T02:23:28.517Z,1008.65
2023-03-27T02:24:28.508Z,1008.67
2023-03-27T02:25:28.423Z,1008.39
2023-03-27T02:26:28.388Z,1008.44
2023-03-27T02:27:28.350Z,1008.41
2023-03-27T02:28:28.290Z,1008.42
2023-03-27T02:29:28.234Z,1008.43
2023-03-27T02:30:28.213Z,1008.80
2023-03-27T02:31:31.788Z,1008.52
2023-03-27T02:32:28.230Z,1008.43
2023-03-27T02:33:28.077Z,1008.65
2023-03-27T02:34:28.017Z,1008.47
2023-03-27T02:35:28.025Z,1008.48
2023-03-27T02:36:27.939Z,1008.54
2023-03-27T02:37:32.515Z,1008.91
2023-03-27T02:38:27.834Z,1008.92
2023-03-27T02:39:27.782Z,1008.93
2023-03-27T02:40:27.751Z,1008.95
2023-03-27T02:41:27.716Z,1008.64
2023-03-27T02:42:27.643Z,1008.69
2023-03-27T02:43:27.630Z,1008.70
2023-03-27T02:44:27.567Z,1008.70
2023-03-27T02:45:27.521Z,1008.69
2023-03-27T02:46:27.555Z,1008.71
2023-03-27T02:47:27.456Z,1008.71
2023-03-27T02:48:27.415Z,1008.95
2023-03-27T02:49:27.352Z,1008.77
2023-03-27T02:50:27.323Z,1008.71
2023-03-27T02:51:27.260Z,1009.08
2023-03-27T02:52:27.213Z,1009.09
2023-03-27T02:53:27.166Z,1009.10
2023-03-27T02:54:27.132Z,1009.10
2023-03-27T02:55:27.085Z,1009.08
2023-03-27T02:56:27.029Z,1009.09
2023-03-27T02:57:27.021Z,1009.10
2023-03-27T02:58:26.989Z,1008.75
2023-03-27T02:59:26.923Z,1008.82
2023-03-27T03:00:26.896Z,1008.81
2023-03-27T03:01:26.903Z,1008.83
2023-03-27T03:02:26.955Z,1008.87
2023-03-27T03:03:26.757Z,1008.85
2023-03-27T03:04:26.688Z,1008.89
2023-03-27T03:05:26.717Z,1008.88
2023-03-27T03:06:26.586Z,1008.96
2023-03-27T03:07:26.540Z,1008.96
2023-03-27T03:08:26.519Z,1008.95
2023-03-27T03:09:26.449Z,1009.03
2023-03-27T03:10:26.421Z,1009.02
2023-03-27T03:11:26.359Z,1009.04
2023-03-27T03:12:26.329Z,1009.04
2023-03-27T03:13:26.297Z,1009.13
2023-03-27T03:14:26.270Z,1009.17
2023-03-27T03:15:26.175Z,1009.53
2023-03-27T03:16:26.162Z,1009.54
2023-03-27T03:17:26.112Z,1009.21
2023-03-27T03:18:26.115Z,1009.27
2023-03-27T03:19:26.007Z,1009.26
2023-03-27T03:20:25.935Z,1009.28
2023-03-27T03:21:25.910Z,1009.63
2023-03-27T03:22:25.905Z,1009.64
2023-03-27T03:23:25.878Z,1009.29
2023-03-27T03:24:25.780Z,1009.30
2023-03-27T03:25:25.740Z,1009.65
2023-03-27T03:26:25.688Z,1009.65
2023-03-27T03:27:25.658Z,1009.63
2023-03-27T03:28:25.595Z,1009.66
2023-03-27T03:29:25.542Z,1009.69
2023-03-27T03:30:25.483Z,1009.33
2023-03-27T03:31:25.496Z,1009.65
2023-03-27T03:32:25.444Z,1009.71
2023-03-27T03:33:25.376Z,1009.71
2023-03-27T03:34:25.302Z,1009.69
2023-03-27T03:35:25.392Z,1009.38
2023-03-27T03:36:25.235Z,1009.40
2023-03-27T03:37:25.208Z,1009.41
2023-03-27T03:38:25.170Z,1009.42
2023-03-27T03:39:25.066Z,1009.38
2023-03-27T03:40:25.043Z,1009.38
2023-03-27T03:41:24.982Z,1009.48
2023-03-27T03:42:24.935Z,1009.42
2023-03-27T03:43:24.933Z,1009.41
2023-03-27T03:44:24.864Z,1009.42
2023-03-27T03:45:24.857Z,1009.41
2023-03-27T03:46:24.797Z,1009.49
2023-03-27T03:47:24.775Z,1009.50
2023-03-27T03:48:24.689Z,1009.54
2023-03-27T03:49:24.678Z,1009.92
2023-03-27T03:50:24.585Z,1009.95
2023-03-27T03:51:24.527Z,1009.64
2023-03-27T03:52:24.502Z,1010.00
2023-03-27T03:53:24.446Z,1009.92
2023-03-27T03:54:24.392Z,1009.93
2023-03-27T03:55:24.424Z,1009.82
2023-03-27T03:56:24.328Z,1010.13
2023-03-27T03:57:24.256Z,1009.80
2023-03-27T03:58:34.616Z,1009.83
2023-03-27T03:59:24.153Z,1010.15
2023-03-27T04:00:24.131Z,1010.13
2023-03-27T04:01:24.115Z,1010.15
2023-03-27T04:02:24.144Z,1009.83
2023-03-27T04:03:24.114Z,1010.20
2023-03-27T04:04:23.935Z,1010.19
2023-03-27T04:05:23.883Z,1010.23
2023-03-27T04:06:23.836Z,1010.26
2023-03-27T04:07:23.823Z,1010.23
2023-03-27T04:08:23.758Z,1010.22
2023-03-27T04:09:23.719Z,1010.19
2023-03-27T04:10:23.669Z,1010.22
2023-03-27T04:11:23.613Z,1010.24
2023-03-27T04:12:23.570Z,1009.90
2023-03-27T04:13:23.538Z,1009.95
2023-03-27T04:14:23.490Z,1009.95
2023-03-27T04:15:23.458Z,1009.96
2023-03-27T04:16:23.409Z,1009.97
2023-03-27T04:17:23.482Z,1010.00
2023-03-27T04:18:23.361Z,1010.00
2023-03-27T04:19:23.674Z,1010.40
2023-03-27T04:20:23.200Z,1010.04
2023-03-27T04:21:23.149Z,1010.07
2023-03-27T04:22:23.130Z,1010.09
2023-03-27T04:23:23.056Z,1010.38
2023-03-27T04:24:23.038Z,1010.49
2023-03-27T04:25:22.978Z,1010.53
2023-03-27T04:26:22.964Z,1010.51
2023-03-27T04:27:22.871Z,1010.54
2023-03-27T04:28:22.812Z,1010.58
2023-03-27T04:29:22.781Z,1010.21
2023-03-27T04:30:22.771Z,1010.53
2023-03-27T04:31:22.756Z,1010.24
2023-03-27T04:32:22.673Z,1010.27
2023-03-27T04:33:22.589Z,1010.25
2023-03-27T04:34:22.577Z,1010.27
2023-03-27T04:35:22.500Z,1010.69
2023-03-27T04:36:22.499Z,1010.34
2023-03-27T04:37:23.350Z,1010.32
2023-03-27T04:38:22.373Z,1010.44
2023-03-27T04:39:22.369Z,1010.34
2023-03-27T04:40:22.299Z,1010.39
2023-03-27T04:41:22.220Z,1010.44
2023-03-27T04:42:22.184Z,1010.73
2023-03-27T04:43:22.166Z,1010.38
2023-03-27T04:44:22.107Z,1010.53
2023-03-27T04:45:22.067Z,1010.49
2023-03-27T04:46:22.038Z,1010.72
2023-03-27T04:47:21.977Z,1010.50
2023-03-27T04:48:21.965Z,1010.67
2023-03-27T04:49:21.908Z,1010.52
2023-03-27T04:50:21.869Z,1010.51
2023-03-27T04:51:21.801Z,1010.60
2023-03-27T04:52:21.735Z,1010.53
2023-03-27T04:53:21.681Z,1010.60
2023-03-27T04:54:21.644Z,1010.56
2023-03-27T04:55:21.600Z,1010.56
2023-03-27T04:56:21.609Z,1010.57
2023-03-27T04:57:21.486Z,1010.94
2023-03-27T04:58:21.467Z,1010.95
2023-03-27T04:59:21.412Z,1010.96
2023-03-27T05:00:21.347Z,1010.98
2023-03-27T05:01:21.405Z,1010.99
2023-03-27T05:02:21.320Z,1010.99
2023-03-27T05:03:21.301Z,1011.00
2023-03-27T05:04:21.185Z,1011.02
2023-03-27T05:05:21.135Z,1011.05
2023-03-27T05:06:21.108Z,1011.04
2023-03-27T05:07:21.073Z,1010.70
2023-03-27T05:08:21.059Z,1010.99
2023-03-27T05:09:20.960Z,1011.04
2023-03-27T05:10:21.865Z,1010.88
2023-03-27T05:11:20.878Z,1010.74
2023-03-27T05:12:20.801Z,1010.73
2023-03-27T05:13:20.756Z,1010.75
2023-03-27T05:14:20.708Z,1010.73
2023-03-27T05:15:20.678Z,1011.12
2023-03-27T05:16:20.670Z,1010.81
2023-03-27T05:17:20.605Z,1011.16
2023-03-27T05:18:20.536Z,1010.84
2023-03-27T05:19:20.501Z,1010.83
2023-03-27T05:20:20.460Z,1010.95
2023-03-27T05:21:20.394Z,1011.11
2023-03-27T05:22:20.376Z,1011.21
2023-03-27T05:23:20.328Z,1011.25
2023-03-27T05:24:20.258Z,1010.91
2023-03-27T05:25:20.253Z,1011.28
2023-03-27T05:26:20.188Z,1011.30
2023-03-27T05:27:20.158Z,1011.30
2023-03-27T05:28:20.092Z,1011.34
2023-03-27T05:29:20.028Z,1011.33
2023-03-27T05:30:19.994Z,1011.32
2023-03-27T05:31:19.999Z,1011.36
2023-03-27T05:32:19.908Z,1011.38
2023-03-27T05:33:19.839Z,1011.36
2023-03-27T05:34:19.808Z,1011.01
2023-03-27T05:35:19.781Z,1011.43
2023-03-27T05:36:19.717Z,1011.11
2023-03-27T05:37:19.679Z,1011.10
2023-03-27T05:38:19.627Z,1011.11
2023-03-27T05:39:19.591Z,1011.15
2023-03-27T05:40:19.552Z,1011.16
2023-03-27T05:41:19.505Z,1011.18
2023-03-27T05:42:19.436Z,1011.30
2023-03-27T05:43:19.391Z,1011.58
2023-03-27T05:44:19.363Z,1011.57
2023-03-27T05:45:19.321Z,1011.22
2023-03-27T05:46:21.367Z,1011.26
2023-03-27T05:47:19.234Z,1011.60
2023-03-27T05:48:19.162Z,1011.68
2023-03-27T05:49:19.118Z,1011.45
2023-03-27T05:50:19.085Z,1011.38
2023-03-27T05:51:19.036Z,1011.56
2023-03-27T05:52:18.986Z,1011.43
2023-03-27T05:53:18.958Z,1011.75
2023-03-27T05:54:18.897Z,1011.74
2023-03-27T05:55:18.864Z,1011.75
2023-03-27T05:56:18.812Z,1011.73
2023-03-27T05:57:18.801Z,1011.44
2023-03-27T05:58:18.726Z,1011.41
2023-03-27T05:59:18.691Z,1011.69
2023-03-27T06:00:18.626Z,1011.45
2023-03-27T06:01:18.587Z,1011.44
2023-03-27T06:02:21.117Z,1011.70
2023-03-27T06:03:18.599Z,1011.82
2023-03-27T06:04:18.618Z,1011.79
2023-03-27T06:05:18.450Z,1011.51
2023-03-27T06:06:18.352Z,1011.56
2023-03-27T06:07:18.305Z,1011.64
2023-03-27T06:08:18.254Z,1011.59
2023-03-27T06:09:18.213Z,1011.62
2023-03-27T06:10:18.172Z,1012.00
2023-03-27T06:11:18.126Z,1011.95
2023-03-27T06:12:18.082Z,1011.69
2023-03-27T06:13:18.042Z,1011.99
2023-03-27T06:14:17.994Z,1011.69
2023-03-27T06:15:17.981Z,1011.70
2023-03-27T06:16:17.925Z,1011.76
2023-03-27T06:17:17.855Z,1011.74
2023-03-27T06:18:17.823Z,1011.63
2023-03-27T06:19:17.777Z,1011.67
2023-03-27T06:20:17.733Z,1011.67
2023-03-27T06:21:17.677Z,1011.71
2023-03-27T06:22:17.638Z,1011.68
2023-03-27T06:23:17.597Z,1011.69
2023-03-27T06:24:17.553Z,1011.72
2023-03-27T06:25:17.501Z,1011.76
2023-03-27T06:26:17.459Z,1012.09
2023-03-27T06:27:17.415Z,1011.85
2023-03-27T06:28:17.386Z,1012.20
2023-03-27T06:29:17.341Z,1012.24
2023-03-27T06:30:17.320Z,1012.12
2023-03-27T06:31:17.254Z,1011.97
2023-03-27T06:32:17.205Z,1012.10
2023-03-27T06:33:17.153Z,1012.48
2023-03-27T06:34:17.118Z,1012.51
2023-03-27T06:35:17.075Z,1012.25
2023-03-27T06:36:17.062Z,1012.23
2023-03-27T06:37:16.974Z,1012.16
2023-03-27T06:38:16.936Z,1012.10
2023-03-27T06:39:16.891Z,1012.45
2023-03-27T06:40:16.918Z,1012.14
2023-03-27T06:41:16.908Z,1012.21
2023-03-27T06:42:16.999Z,1012.12
2023-03-27T06:43:16.722Z,1012.46
2023-03-27T06:44:16.697Z,1012.33
2023-03-27T06:45:16.637Z,1012.47
2023-03-27T06:46:16.609Z,1012.75
2023-03-27T06:47:16.573Z,1012.55
2023-03-27T06:48:21.534Z,1012.39
2023-03-27T06:49:16.470Z,1012.54
2023-03-27T06:50:16.439Z,1012.27
2023-03-27T06:51:16.379Z,1012.18
2023-03-27T06:52:16.345Z,1012.58
2023-03-27T06:53:26.360Z,1012.29
2023-03-27T06:54:16.277Z,1012.28
2023-03-27T06:55:16.230Z,1012.58
2023-03-27T06:56:16.180Z,1012.59
2023-03-27T06:57:16.160Z,1012.28
2023-03-27T06:58:16.098Z,1012.59
2023-03-27T06:59:16.066Z,1012.62
2023-03-27T07:00:16.065Z,1012.62
2023-03-27T07:01:15.982Z,1012.95
2023-03-27T07:02:15.944Z,1012.78
2023-03-27T07:03:15.894Z,1013.18
2023-03-27T07:04:15.851Z,1012.60
2023-03-27T07:05:15.808Z,1012.82
2023-03-27T07:06:15.775Z,1012.50
2023-03-27T07:07:15.979Z,1012.46
2023-03-27T07:08:23.271Z,1012.81
2023-03-27T07:09:15.640Z,1013.34
2023-03-27T07:10:15.607Z,1013.38
2023-03-27T07:11:15.780Z,1013.14
2023-03-27T07:12:35.623Z,1013.12
2023-03-27T07:13:15.544Z,1013.20
2023-03-27T07:15:25.234Z,1013.27
2023-03-27T07:16:16.352Z,1013.35
2023-03-27T07:17:16.330Z,1013.30
2023-03-27T07:18:16.382Z,1013.51
2023-03-27T07:19:16.328Z,1013.67
2023-03-27T07:20:16.138Z,1013.53
2023-03-27T07:21:16.411Z,1013.64
2023-03-27T07:22:16.121Z,1013.67
2023-03-27T07:23:16.550Z,1014.08
2023-03-27T07:24:16.054Z,1013.70
2023-03-27T07:25:16.189Z,1014.14
2023-03-27T07:26:16.612Z,1013.90
2023-03-27T07:27:15.948Z,1014.16
2023-03-27T07:28:15.716Z,1013.80
2023-03-27T07:29:15.745Z,1013.97
2023-03-27T07:30:16.233Z,1014.10
2023-03-27T07:31:31.503Z,1014.47
2023-03-27T07:32:22.323Z,1014.51
2023-03-27T07:33:15.853Z,1014.56
2023-03-27T07:34:17.845Z,1014.55
2023-03-27T07:35:20.734Z,1014.56
2023-03-27T07:36:16.053Z,1014.27
2023-03-27T07:37:16.629Z,1014.34
2023-03-27T07:38:23.613Z,1014.70
2023-03-27T07:39:15.432Z,1014.58
2023-03-27T07:40:18.492Z,1014.39
2023-03-27T07:41:15.990Z,1014.45
2023-03-27T07:42:15.516Z,1014.76
2023-03-27T07:43:15.401Z,1014.46
2023-03-27T07:44:15.637Z,1014.90
2023-03-27T07:45:15.283Z,1014.53
2023-03-27T07:46:15.208Z,1014.82
2023-03-27T07:47:15.142Z,1014.75
2023-03-27T07:48:15.651Z,1014.66
2023-03-27T07:49:17.619Z,1013.69
2023-03-27T07:50:16.627Z,1014.91
2023-03-27T07:54:49.170Z,1014.63
2023-03-27T07:55:49.496Z,1014.63
2023-03-27T07:56:49.551Z,1014.96
2023-03-27T07:57:59.175Z,1014.12
2023-03-27T07:58:49.310Z,1014.17
2023-03-27T07:59:49.483Z,1014.71
2023-03-27T08:00:49.391Z,1014.10
2023-03-27T08:01:49.306Z,1014.39
2023-03-27T08:02:49.218Z,1014.32
2023-03-27T08:03:49.470Z,1014.33
2023-03-27T08:04:49.246Z,1014.23
2023-03-27T08:05:48.192Z,1015.10
2023-03-27T08:06:48.200Z,1014.85
2023-03-27T08:07:48.128Z,1014.03
2023-03-27T08:08:48.087Z,1014.67
2023-03-27T08:09:48.025Z,1014.23
2023-03-27T08:10:48.042Z,1015.05
2023-03-27T08:11:47.970Z,1013.93
2023-03-27T08:12:47.925Z,1014.30
2023-03-27T08:13:47.930Z,1013.98
2023-03-27T08:14:47.852Z,1014.38
2023-03-27T08:15:47.809Z,1013.91
2023-03-27T08:16:47.771Z,1013.87
2023-03-27T08:17:47.798Z,1013.90
2023-03-27T08:18:47.684Z,1013.84
2023-03-27T08:19:47.665Z,1013.86
2023-03-27T08:20:47.624Z,1013.91
2023-03-27T08:21:47.591Z,1014.28
2023-03-27T08:22:47.558Z,1013.89
2023-03-27T08:23:47.606Z,1013.93
2023-03-27T08:24:47.459Z,1013.86
2023-03-27T08:25:47.423Z,1014.14
2023-03-27T08:26:47.389Z,1014.23
2023-03-27T08:27:47.344Z,1013.88
2023-03-27T08:28:47.305Z,1014.00
2023-03-27T08:29:47.284Z,1015.08
2023-03-27T08:30:47.259Z,1014.37
2023-03-27T08:31:47.209Z,1013.98
2023-03-27T08:32:47.196Z,1014.03
2023-03-27T08:33:47.124Z,1014.15
2023-03-27T08:34:47.077Z,1014.08
2023-03-27T08:35:47.097Z,1014.25
2023-03-27T08:36:47.007Z,1015.20
2023-03-27T08:37:46.953Z,1015.23
2023-03-27T08:38:46.909Z,1014.86
2023-03-27T08:39:46.893Z,1014.52
2023-03-27T08:40:46.857Z,1014.14
2023-03-27T08:41:46.809Z,1014.48
2023-03-27T08:42:46.764Z,1014.11
2023-03-27T08:43:46.711Z,1014.15
2023-03-27T08:44:46.677Z,1014.44
2023-03-27T08:45:46.646Z,1015.18
2023-03-27T08:46:46.661Z,1014.87
2023-03-27T08:47:46.595Z,1014.92
2023-03-27T08:48:46.549Z,1015.35
2023-03-27T08:49:46.508Z,1014.88
2023-03-27T08:50:46.445Z,1015.08
2023-03-27T08:51:46.419Z,1014.38
2023-03-27T08:52:46.376Z,1014.98
2023-03-27T08:53:46.356Z,1015.16
2023-03-27T08:54:46.300Z,1015.08
2023-03-27T08:55:46.270Z,1015.09
2023-03-27T08:56:46.253Z,1015.13
2023-03-27T08:57:46.196Z,1015.16
2023-03-27T08:58:46.165Z,1015.49
2023-03-27T08:59:46.113Z,1015.19
2023-03-27T09:00:46.072Z,1015.58
2023-03-27T09:01:46.165Z,1015.29
2023-03-27T09:02:46.043Z,1015.58
2023-03-27T09:03:46.065Z,1015.37
2023-03-27T09:04:45.937Z,1015.32
2023-03-27T09:05:45.893Z,1015.62
2023-03-27T09:06:45.866Z,1015.30
2023-03-27T09:07:45.833Z,1015.67
2023-03-27T09:08:45.834Z,1015.67
2023-03-27T09:09:45.764Z,1014.86
2023-03-27T09:10:45.712Z,1015.13
2023-03-27T09:11:45.711Z,1014.96
2023-03-27T09:12:45.694Z,1015.04
2023-03-27T09:13:45.623Z,1015.09
2023-03-27T09:14:45.568Z,1015.04
2023-03-27T09:15:45.578Z,1014.77
2023-03-27T09:16:46.662Z,1014.76
2023-03-27T09:17:45.523Z,1014.87
2023-03-27T09:18:45.461Z,1014.78
2023-03-27T09:19:45.410Z,1015.19
2023-03-27T09:20:45.363Z,1015.05
2023-03-27T09:21:45.329Z,1014.75
2023-03-27T09:22:45.320Z,1015.06
2023-03-27T09:23:45.283Z,1014.71
2023-03-27T09:24:45.249Z,1015.08
2023-03-27T09:25:45.192Z,1015.01
2023-03-27T09:26:45.432Z,1014.75
2023-03-27T09:27:45.103Z,1015.05
2023-03-27T09:28:46.031Z,1014.69
2023-03-27T09:29:45.049Z,1014.64
2023-03-27T09:30:45.014Z,1014.61
2023-03-27T09:31:45.150Z,1014.66
2023-03-27T09:32:44.945Z,1014.65
2023-03-27T09:33:44.877Z,1014.60
2023-03-27T09:34:44.868Z,1014.53
2023-03-27T09:35:44.856Z,1014.55
2023-03-27T09:36:44.773Z,1014.94
2023-03-27T09:37:44.741Z,1014.59
2023-03-27T09:38:44.705Z,1014.57
2023-03-27T09:39:44.668Z,1014.60
2023-03-27T09:40:44.608Z,1014.98
2023-03-27T09:41:44.583Z,1015.11
2023-03-27T09:42:44.533Z,1015.12
2023-03-27T09:43:45.016Z,1015.19
2023-03-27T09:44:44.501Z,1015.22
2023-03-27T09:45:44.432Z,1014.90
2023-03-27T09:46:44.460Z,1014.76
2023-03-27T09:47:44.391Z,1015.10
2023-03-27T09:48:44.324Z,1014.69
2023-03-27T09:49:44.277Z,1015.02
2023-03-27T09:50:44.306Z,1014.70
2023-03-27T09:51:44.197Z,1014.66
2023-03-27T09:52:44.157Z,1014.67
2023-03-27T09:53:44.143Z,1014.65
2023-03-27T09:54:44.082Z,1015.07
2023-03-27T09:55:44.071Z,1014.68
2023-03-27T09:56:44.070Z,1015.07
2023-03-27T09:57:43.953Z,1014.93
2023-03-27T09:58:44.100Z,1014.96
2023-03-27T09:59:43.892Z,1014.82
2023-03-27T10:00:43.895Z,1015.16
2023-03-27T10:01:43.828Z,1015.25
2023-03-27T10:02:43.830Z,1015.15
2023-03-27T10:03:43.770Z,1015.26
2023-03-27T10:04:43.684Z,1014.92
2023-03-27T10:05:43.653Z,1015.13
2023-03-27T10:06:43.639Z,1015.64
2023-03-27T10:07:43.618Z,1015.71
2023-03-27T10:08:43.546Z,1015.36
2023-03-27T10:09:43.522Z,1015.08
2023-03-27T10:10:43.469Z,1015.43
2023-03-27T10:11:43.426Z,1015.65
2023-03-27T10:12:43.388Z,1015.35
2023-03-27T10:13:43.376Z,1015.33
2023-03-27T10:14:43.320Z,1015.32
2023-03-27T10:15:43.277Z,1015.30
2023-03-27T10:16:43.267Z,1015.61
2023-03-27T10:17:43.255Z,1015.35
2023-03-27T10:18:43.262Z,1015.62
2023-03-27T10:19:43.122Z,1015.29
2023-03-27T10:20:43.124Z,1015.32
2023-03-27T10:21:43.070Z,1015.28
2023-03-27T10:22:43.025Z,1015.22
2023-03-27T10:23:43.088Z,1015.40
2023-03-27T10:24:44.186Z,1015.24
2023-03-27T10:25:42.921Z,1015.17
2023-03-27T10:26:42.896Z,1015.40
2023-03-27T10:27:42.849Z,1015.05
2023-03-27T10:28:42.844Z,1015.04
2023-03-27T10:29:42.797Z,1015.38
2023-03-27T10:30:42.759Z,1014.97
2023-03-27T10:31:42.761Z,1015.39
2023-03-27T10:32:42.709Z,1015.05
2023-03-27T10:33:42.630Z,1014.97
2023-03-27T10:34:42.595Z,1014.96
2023-03-27T10:35:42.613Z,1015.04
2023-03-27T10:36:42.527Z,1015.09
2023-03-27T10:37:50.102Z,1015.13
2023-03-27T10:38:42.455Z,1015.12
2023-03-27T10:39:42.434Z,1015.05
2023-03-27T10:40:42.384Z,1015.03
2023-03-27T10:41:42.339Z,1015.01
2023-03-27T10:42:42.298Z,1015.01
2023-03-27T10:43:42.253Z,1015.04
2023-03-27T10:44:42.220Z,1015.08
2023-03-27T10:45:42.256Z,1015.42
2023-03-27T10:46:42.184Z,1015.08
2023-03-27T10:47:42.144Z,1015.11
2023-03-27T10:48:42.106Z,1015.28
2023-03-27T10:49:42.016Z,1015.47
2023-03-27T10:50:41.987Z,1015.46
2023-03-27T10:51:46.591Z,1015.45
2023-03-27T10:52:41.965Z,1015.25
2023-03-27T10:53:41.980Z,1015.25
2023-03-27T10:54:41.872Z,1015.18
2023-03-27T10:55:41.776Z,1015.25
2023-03-27T10:56:41.787Z,1015.58
2023-03-27T10:57:41.695Z,1015.22
2023-03-27T10:58:41.681Z,1015.25
2023-03-27T10:59:42.333Z,1015.23
2023-03-27T11:00:41.579Z,1015.58
2023-03-27T11:01:41.554Z,1015.54
2023-03-27T11:02:41.526Z,1015.20
2023-03-27T11:03:41.470Z,1015.50
2023-03-27T11:04:41.483Z,1015.30
2023-03-27T11:05:41.433Z,1015.41
2023-03-27T11:06:41.412Z,1015.54
2023-03-27T11:07:41.322Z,1015.35
2023-03-27T11:08:41.245Z,1015.68
2023-03-27T11:09:41.211Z,1015.65
2023-03-27T11:10:41.170Z,1015.56
2023-03-27T11:11:41.129Z,1015.57
2023-03-27T11:12:41.080Z,1015.98
2023-03-27T11:13:41.072Z,1015.59
2023-03-27T11:14:41.007Z,1015.65
2023-03-27T11:15:40.985Z,1015.67
2023-03-27T11:16:40.964Z,1015.66
2023-03-27T11:17:40.931Z,1016.05
2023-03-27T11:18:40.879Z,1015.76
2023-03-27T11:19:40.863Z,1015.78
2023-03-27T11:20:40.790Z,1015.94
2023-03-27T11:21:40.768Z,1015.56
2023-03-27T11:22:40.702Z,1015.43
2023-03-27T11:23:40.660Z,1015.71
2023-03-27T11:24:40.637Z,1015.60
2023-03-27T11:25:40.599Z,1015.49
2023-03-27T11:26:40.563Z,1015.66
2023-03-27T11:27:40.519Z,1015.65
2023-03-27T11:28:40.469Z,1015.63
2023-03-27T11:29:40.428Z,1016.14
2023-03-27T11:30:40.385Z,1015.82
2023-03-27T11:31:40.469Z,1015.76
2023-03-27T11:32:40.325Z,1015.91
2023-03-27T11:33:40.321Z,1015.92
2023-03-27T11:34:40.251Z,1016.31
2023-03-27T11:35:40.265Z,1016.21
2023-03-27T11:36:40.172Z,1015.98
2023-03-27T11:37:40.135Z,1016.02
2023-03-27T11:38:40.122Z,1015.95
2023-03-27T11:39:40.086Z,1015.93
2023-03-27T11:40:40.033Z,1015.95
2023-03-27T11:41:39.991Z,1015.96
2023-03-27T11:42:39.953Z,1015.93
2023-03-27T11:43:39.913Z,1016.03
2023-03-27T11:44:39.855Z,1016.52
2023-03-27T11:45:39.837Z,1016.52
2023-03-27T11:46:39.807Z,1016.27
2023-03-27T11:47:39.770Z,1016.53
2023-03-27T11:48:39.700Z,1016.17
2023-03-27T11:49:39.719Z,1016.17
2023-03-27T11:50:39.630Z,1016.57
2023-03-27T11:51:39.565Z,1016.16
2023-03-27T11:52:39.520Z,1016.18
2023-03-27T11:53:39.492Z,1016.19
2023-03-27T11:54:39.485Z,1016.21
2023-03-27T11:55:39.428Z,1016.22
2023-03-27T11:56:39.409Z,1016.30
2023-03-27T11:57:39.325Z,1016.59
2023-03-27T11:58:39.320Z,1016.57
2023-03-27T11:59:39.249Z,1016.51
2023-03-27T12:00:39.237Z,1016.56
2023-03-27T12:01:39.240Z,1016.46
2023-03-27T12:02:39.265Z,1016.16
2023-03-27T12:03:39.319Z,1016.31
2023-03-27T12:04:39.081Z,1016.47
2023-03-27T12:05:39.066Z,1016.17
2023-03-27T12:06:39.003Z,1016.15
2023-03-27T12:07:40.608Z,1016.16
2023-03-27T12:08:38.930Z,1016.16
2023-03-27T12:09:38.893Z,1016.11
2023-03-27T12:10:38.925Z,1016.47
2023-03-27T12:11:38.876Z,1016.15
2023-03-27T12:12:38.793Z,1016.20
2023-03-27T12:13:41.984Z,1016.16
2023-03-27T12:14:41.154Z,1016.09
2023-03-27T12:15:38.755Z,1016.08
2023-03-27T12:16:38.688Z,1016.47
2023-03-27T12:17:38.689Z,1016.13
2023-03-27T12:18:41.389Z,1016.46
2023-03-27T12:19:39.417Z,1016.10
2023-03-27T12:20:46.022Z,1016.12
2023-03-27T12:21:38.480Z,1016.48
2023-03-27T12:22:38.471Z,1016.56
2023-03-27T12:23:38.420Z,1016.52
2023-03-27T12:24:40.587Z,1016.51
2023-03-27T12:25:38.401Z,1016.19
2023-03-27T12:26:38.412Z,1016.27
2023-03-27T12:27:42.226Z,1016.18
2023-03-27T12:28:42.890Z,1016.13
2023-03-27T12:29:38.377Z,1016.43
2023-03-27T12:30:41.076Z,1016.09
2023-03-27T12:31:38.376Z,1016.11
2023-03-27T12:32:38.283Z,1016.14
2023-03-27T12:33:39.138Z,1016.11
2023-03-27T12:34:38.056Z,1016.12
2023-03-27T12:35:38.078Z,1016.51
2023-03-27T12:36:37.996Z,1016.69
2023-03-27T12:37:37.933Z,1016.71
2023-03-27T12:38:37.901Z,1016.72
2023-03-27T12:39:37.910Z,1016.31
2023-03-27T12:40:37.836Z,1016.42
2023-03-27T12:41:37.891Z,1016.74
2023-03-27T12:42:43.839Z,1016.73
2023-03-27T12:43:37.749Z,1016.69
2023-03-27T12:44:37.691Z,1016.62
2023-03-27T12:45:47.401Z,1016.31
2023-03-27T12:46:38.596Z,1016.19
2023-03-27T12:47:37.640Z,1016.33
2023-03-27T12:48:37.579Z,1016.02
2023-03-27T12:49:47.084Z,1016.04
2023-03-27T12:50:37.513Z,1016.40
2023-03-27T12:51:37.521Z,1016.06
2023-03-27T12:52:37.445Z,1016.40
2023-03-27T12:55:38.637Z,1016.35
2023-03-27T12:56:39.180Z,1016.39
2023-03-27T12:57:42.667Z,1016.34
2023-03-27T12:58:38.475Z,1016.00
2023-03-27T12:59:37.814Z,1016.32
2023-03-27T13:00:42.980Z,1016.00
2023-03-27T13:16:31.410Z,1015.81
2023-03-27T13:17:31.330Z,1015.74
2023-03-27T13:18:31.268Z,1015.73
2023-03-27T13:19:31.232Z,1016.07
2023-03-27T13:20:31.194Z,1015.72
2023-03-27T13:21:31.150Z,1015.95
2023-03-27T13:22:33.144Z,1016.10
2023-03-27T13:23:31.075Z,1016.11
2023-03-27T13:24:31.030Z,1015.74
2023-03-27T13:25:30.975Z,1015.74
2023-03-27T13:26:30.941Z,1015.77
2023-03-27T13:27:30.910Z,1015.80
2023-03-27T13:28:30.874Z,1015.82
2023-03-27T13:29:30.811Z,1015.79
2023-03-27T13:30:30.783Z,1015.76
2023-03-27T13:31:30.796Z,1016.09
2023-03-27T13:32:30.739Z,1016.10
2023-03-27T13:33:30.653Z,1015.72
2023-03-27T13:34:30.662Z,1015.70
2023-03-27T13:35:30.605Z,1015.69
2023-03-27T13:36:30.549Z,1015.72
2023-03-27T13:37:36.698Z,1015.73
2023-03-27T13:38:30.468Z,1015.73
2023-03-27T13:39:30.419Z,1015.68
2023-03-27T13:40:30.363Z,1016.06
2023-03-27T13:41:30.315Z,1015.95